sensor_id;sensor_type;location;lat;lon;timestamp;P1;durP1;ratioP1;P2;durP2;ratioP2
48199;SDS011;33990;44.602;10.976;2023-06-14T00:02:17;2.35;;;1.67;;
48199;SDS011;33990;44.602;10.976;2023-06-14T00:04:44;3.17;;;2.28;;
48199;SDS011;33990;44.602;10.976;2023-06-14T00:07:12;3.75;;;2.00;;
48199;SDS011;33990;44.602;10.976;2023-06-14T00:09:41;3.85;;;2.22;;
48199;SDS011;33990;44.602;10.976;2023-06-14T00:12:08;4.25;;;2.33;;
48199;SDS011;33990;44.602;10.976;2023-06-14T00:14:35;4.40;;;2.28;;
48199;SDS011;33990;44.602;10.976;2023-06-14T00:17:03;3.90;;;1.98;;
48199;SDS011;33990;44.602;10.976;2023-06-14T00:19:30;5.32;;;1.98;;
48199;SDS011;33990;44.602;10.976;2023-06-14T00:22:01;3.17;;;2.08;;
48199;SDS011;33990;44.602;10.976;2023-06-14T00:24:30;4.45;;;1.88;;
48199;SDS011;33990;44.602;10.976;2023-06-14T00:26:57;3.25;;;1.77;;
48199;SDS011;33990;44.602;10.976;2023-06-14T00:29:25;4.53;;;2.00;;
48199;SDS011;33990;44.602;10.976;2023-06-14T00:31:52;5.38;;;2.33;;
48199;SDS011;33990;44.602;10.976;2023-06-14T00:34:20;2.78;;;1.67;;
48199;SDS011;33990;44.602;10.976;2023-06-14T00:36:47;3.78;;;2.15;;
48199;SDS011;33990;44.602;10.976;2023-06-14T00:39:15;3.78;;;2.20;;
48199;SDS011;33990;44.602;10.976;2023-06-14T00:41:42;3.33;;;2.08;;
48199;SDS011;33990;44.602;10.976;2023-06-14T00:44:09;3.35;;;2.15;;
48199;SDS011;33990;44.602;10.976;2023-06-14T00:46:37;6.10;;;2.55;;
48199;SDS011;33990;44.602;10.976;2023-06-14T00:49:04;3.38;;;2.28;;
48199;SDS011;33990;44.602;10.976;2023-06-14T00:51:33;4.50;;;2.35;;
48199;SDS011;33990;44.602;10.976;2023-06-14T00:54:00;3.42;;;1.98;;
48199;SDS011;33990;44.602;10.976;2023-06-14T00:56:28;2.83;;;1.83;;
48199;SDS011;33990;44.602;10.976;2023-06-14T00:58:56;2.65;;;1.63;;
48199;SDS011;33990;44.602;10.976;2023-06-14T01:01:25;2.78;;;2.03;;
48199;SDS011;33990;44.602;10.976;2023-06-14T01:03:52;3.70;;;2.00;;
48199;SDS011;33990;44.602;10.976;2023-06-14T01:11:47;3.78;;;2.22;;
48199;SDS011;33990;44.602;10.976;2023-06-14T01:14:21;3.20;;;1.95;;
48199;SDS011;33990;44.602;10.976;2023-06-14T01:16:52;2.60;;;1.60;;
48199;SDS011;33990;44.602;10.976;2023-06-14T01:19:20;3.65;;;2.35;;
48199;SDS011;33990;44.602;10.976;2023-06-14T01:21:53;4.85;;;2.03;;
48199;SDS011;33990;44.602;10.976;2023-06-14T01:24:22;3.72;;;2.03;;
48199;SDS011;33990;44.602;10.976;2023-06-14T01:26:54;2.67;;;1.73;;
48199;SDS011;33990;44.602;10.976;2023-06-14T01:29:23;3.95;;;2.05;;
48199;SDS011;33990;44.602;10.976;2023-06-14T01:31:52;4.85;;;2.10;;
48199;SDS011;33990;44.602;10.976;2023-06-14T01:34:21;3.40;;;2.15;;
48199;SDS011;33990;44.602;10.976;2023-06-14T01:36:50;3.88;;;2.00;;
48199;SDS011;33990;44.602;10.976;2023-06-14T01:39:21;3.20;;;1.85;;
48199;SDS011;33990;44.602;10.976;2023-06-14T01:41:50;2.72;;;1.90;;
48199;SDS011;33990;44.602;10.976;2023-06-14T01:44:19;5.38;;;2.42;;
48199;SDS011;33990;44.602;10.976;2023-06-14T01:46:47;3.42;;;1.80;;
48199;SDS011;33990;44.602;10.976;2023-06-14T01:49:15;3.17;;;1.50;;
48199;SDS011;33990;44.602;10.976;2023-06-14T01:51:43;2.78;;;1.95;;
48199;SDS011;33990;44.602;10.976;2023-06-14T01:54:10;4.95;;;1.88;;
48199;SDS011;33990;44.602;10.976;2023-06-14T01:56:38;3.75;;;1.95;;
48199;SDS011;33990;44.602;10.976;2023-06-14T01:59:05;3.40;;;1.95;;
48199;SDS011;33990;44.602;10.976;2023-06-14T02:01:33;4.75;;;2.35;;
48199;SDS011;33990;44.602;10.976;2023-06-14T02:04:01;3.50;;;1.80;;
48199;SDS011;33990;44.602;10.976;2023-06-14T02:06:28;4.03;;;1.75;;
48199;SDS011;33990;44.602;10.976;2023-06-14T02:08:56;3.75;;;2.10;;
48199;SDS011;33990;44.602;10.976;2023-06-14T02:11:24;4.40;;;2.05;;
48199;SDS011;33990;44.602;10.976;2023-06-14T02:13:52;4.43;;;1.85;;
48199;SDS011;33990;44.602;10.976;2023-06-14T02:16:20;3.05;;;1.90;;
48199;SDS011;33990;44.602;10.976;2023-06-14T02:18:47;5.25;;;2.13;;
48199;SDS011;33990;44.602;10.976;2023-06-14T02:21:16;3.45;;;1.80;;
48199;SDS011;33990;44.602;10.976;2023-06-14T02:23:45;2.75;;;1.80;;
48199;SDS011;33990;44.602;10.976;2023-06-14T02:26:13;4.03;;;1.88;;
48199;SDS011;33990;44.602;10.976;2023-06-14T02:28:40;3.75;;;2.15;;
48199;SDS011;33990;44.602;10.976;2023-06-14T02:31:08;5.60;;;1.90;;
48199;SDS011;33990;44.602;10.976;2023-06-14T02:33:36;3.67;;;1.70;;
48199;SDS011;33990;44.602;10.976;2023-06-14T02:36:03;2.70;;;1.50;;
48199;SDS011;33990;44.602;10.976;2023-06-14T02:38:34;4.35;;;1.65;;
48199;SDS011;33990;44.602;10.976;2023-06-14T02:41:01;2.47;;;1.48;;
48199;SDS011;33990;44.602;10.976;2023-06-14T02:43:29;3.25;;;1.75;;
48199;SDS011;33990;44.602;10.976;2023-06-14T02:45:58;2.72;;;1.42;;
48199;SDS011;33990;44.602;10.976;2023-06-14T02:48:26;4.00;;;1.60;;
48199;SDS011;33990;44.602;10.976;2023-06-14T02:50:54;2.50;;;1.60;;
48199;SDS011;33990;44.602;10.976;2023-06-14T02:53:23;3.10;;;1.60;;
48199;SDS011;33990;44.602;10.976;2023-06-14T02:55:50;2.92;;;1.48;;
48199;SDS011;33990;44.602;10.976;2023-06-14T02:58:18;4.10;;;2.00;;
48199;SDS011;33990;44.602;10.976;2023-06-14T03:00:46;3.70;;;1.58;;
48199;SDS011;33990;44.602;10.976;2023-06-14T03:03:13;3.38;;;1.38;;
48199;SDS011;33990;44.602;10.976;2023-06-14T03:05:50;5.43;;;1.50;;
48199;SDS011;33990;44.602;10.976;2023-06-14T03:08:22;2.38;;;1.67;;
48199;SDS011;33990;44.602;10.976;2023-06-14T03:10:54;3.20;;;1.70;;
48199;SDS011;33990;44.602;10.976;2023-06-14T03:13:24;3.08;;;1.73;;
48199;SDS011;33990;44.602;10.976;2023-06-14T03:15:51;2.45;;;1.27;;
48199;SDS011;33990;44.602;10.976;2023-06-14T03:18:21;2.55;;;1.50;;
48199;SDS011;33990;44.602;10.976;2023-06-14T03:20:54;3.67;;;1.60;;
48199;SDS011;33990;44.602;10.976;2023-06-14T03:23:25;2.65;;;1.75;;
48199;SDS011;33990;44.602;10.976;2023-06-14T03:25:52;2.67;;;1.52;;
48199;SDS011;33990;44.602;10.976;2023-06-14T03:28:21;4.50;;;1.27;;
48199;SDS011;33990;44.602;10.976;2023-06-14T03:30:48;4.50;;;1.75;;
48199;SDS011;33990;44.602;10.976;2023-06-14T03:33:17;3.65;;;2.00;;
48199;SDS011;33990;44.602;10.976;2023-06-14T03:35:44;2.40;;;1.30;;
48199;SDS011;33990;44.602;10.976;2023-06-14T03:38:12;3.42;;;1.65;;
48199;SDS011;33990;44.602;10.976;2023-06-14T03:40:40;3.10;;;1.88;;
48199;SDS011;33990;44.602;10.976;2023-06-14T03:43:07;4.10;;;1.90;;
48199;SDS011;33990;44.602;10.976;2023-06-14T03:45:35;3.90;;;1.83;;
48199;SDS011;33990;44.602;10.976;2023-06-14T03:48:02;2.65;;;1.50;;
48199;SDS011;33990;44.602;10.976;2023-06-14T03:50:31;3.58;;;1.40;;
48199;SDS011;33990;44.602;10.976;2023-06-14T03:52:59;3.47;;;1.90;;
48199;SDS011;33990;44.602;10.976;2023-06-14T03:55:28;3.83;;;1.50;;
48199;SDS011;33990;44.602;10.976;2023-06-14T03:58:02;3.72;;;1.63;;
48199;SDS011;33990;44.602;10.976;2023-06-14T04:00:29;2.50;;;1.58;;
48199;SDS011;33990;44.602;10.976;2023-06-14T04:02:57;3.40;;;1.60;;
48199;SDS011;33990;44.602;10.976;2023-06-14T04:05:24;2.53;;;1.77;;
48199;SDS011;33990;44.602;10.976;2023-06-14T04:07:55;4.57;;;2.03;;
48199;SDS011;33990;44.602;10.976;2023-06-14T04:10:22;2.38;;;1.38;;
48199;SDS011;33990;44.602;10.976;2023-06-14T04:12:50;2.92;;;1.95;;
48199;SDS011;33990;44.602;10.976;2023-06-14T04:15:19;2.88;;;1.73;;
48199;SDS011;33990;44.602;10.976;2023-06-14T04:20:22;2.83;;;1.70;;
48199;SDS011;33990;44.602;10.976;2023-06-14T04:22:51;2.75;;;1.50;;
48199;SDS011;33990;44.602;10.976;2023-06-14T04:25:20;2.78;;;1.48;;
48199;SDS011;33990;44.602;10.976;2023-06-14T04:27:51;3.55;;;1.70;;
48199;SDS011;33990;44.602;10.976;2023-06-14T04:30:21;3.58;;;1.95;;
48199;SDS011;33990;44.602;10.976;2023-06-14T04:32:55;3.45;;;1.80;;
48199;SDS011;33990;44.602;10.976;2023-06-14T04:35:23;3.58;;;1.98;;
48199;SDS011;33990;44.602;10.976;2023-06-14T04:37:51;2.60;;;1.60;;
48199;SDS011;33990;44.602;10.976;2023-06-14T04:40:21;2.72;;;1.67;;
48199;SDS011;33990;44.602;10.976;2023-06-14T04:42:48;3.38;;;1.73;;
48199;SDS011;33990;44.602;10.976;2023-06-14T04:45:18;2.88;;;1.50;;
48199;SDS011;33990;44.602;10.976;2023-06-14T04:47:46;2.58;;;1.75;;
48199;SDS011;33990;44.602;10.976;2023-06-14T04:50:14;3.28;;;1.70;;
48199;SDS011;33990;44.602;10.976;2023-06-14T04:52:42;4.65;;;1.83;;
48199;SDS011;33990;44.602;10.976;2023-06-14T04:55:10;2.63;;;1.50;;
48199;SDS011;33990;44.602;10.976;2023-06-14T04:57:37;4.82;;;1.92;;
48199;SDS011;33990;44.602;10.976;2023-06-14T05:00:06;4.30;;;1.58;;
48199;SDS011;33990;44.602;10.976;2023-06-14T05:02:34;2.65;;;1.40;;
48199;SDS011;33990;44.602;10.976;2023-06-14T05:05:03;3.40;;;1.88;;
48199;SDS011;33990;44.602;10.976;2023-06-14T05:07:32;2.85;;;1.60;;
48199;SDS011;33990;44.602;10.976;2023-06-14T05:10:01;2.80;;;1.70;;
48199;SDS011;33990;44.602;10.976;2023-06-14T05:12:28;4.10;;;2.08;;
48199;SDS011;33990;44.602;10.976;2023-06-14T05:14:57;2.78;;;1.30;;
48199;SDS011;33990;44.602;10.976;2023-06-14T05:17:25;6.28;;;1.77;;
48199;SDS011;33990;44.602;10.976;2023-06-14T05:19:55;3.15;;;1.92;;
48199;SDS011;33990;44.602;10.976;2023-06-14T05:22:22;4.30;;;1.85;;
48199;SDS011;33990;44.602;10.976;2023-06-14T05:24:50;2.65;;;1.55;;
48199;SDS011;33990;44.602;10.976;2023-06-14T05:27:17;3.65;;;1.73;;
48199;SDS011;33990;44.602;10.976;2023-06-14T05:29:45;2.70;;;1.33;;
48199;SDS011;33990;44.602;10.976;2023-06-14T05:32:12;4.10;;;1.35;;
48199;SDS011;33990;44.602;10.976;2023-06-14T05:34:40;2.55;;;1.45;;
48199;SDS011;33990;44.602;10.976;2023-06-14T05:37:07;3.08;;;1.73;;
48199;SDS011;33990;44.602;10.976;2023-06-14T05:39:34;3.20;;;1.40;;
48199;SDS011;33990;44.602;10.976;2023-06-14T05:42:02;2.70;;;1.52;;
48199;SDS011;33990;44.602;10.976;2023-06-14T05:44:29;2.00;;;1.20;;
48199;SDS011;33990;44.602;10.976;2023-06-14T05:46:57;2.50;;;1.45;;
48199;SDS011;33990;44.602;10.976;2023-06-14T05:49:24;3.85;;;1.50;;
48199;SDS011;33990;44.602;10.976;2023-06-14T05:51:52;2.60;;;1.35;;
48199;SDS011;33990;44.602;10.976;2023-06-14T05:54:19;5.47;;;2.13;;
48199;SDS011;33990;44.602;10.976;2023-06-14T05:56:46;3.00;;;1.63;;
48199;SDS011;33990;44.602;10.976;2023-06-14T05:59:13;2.78;;;1.45;;
48199;SDS011;33990;44.602;10.976;2023-06-14T06:01:41;3.45;;;1.90;;
48199;SDS011;33990;44.602;10.976;2023-06-14T06:04:09;3.47;;;1.55;;
48199;SDS011;33990;44.602;10.976;2023-06-14T06:06:36;2.88;;;1.45;;
48199;SDS011;33990;44.602;10.976;2023-06-14T06:09:03;4.10;;;1.98;;
48199;SDS011;33990;44.602;10.976;2023-06-14T06:11:31;4.00;;;1.75;;
48199;SDS011;33990;44.602;10.976;2023-06-14T06:14:18;2.67;;;1.55;;
48199;SDS011;33990;44.602;10.976;2023-06-14T06:16:45;3.28;;;1.60;;
48199;SDS011;33990;44.602;10.976;2023-06-14T06:19:13;3.45;;;1.25;;
48199;SDS011;33990;44.602;10.976;2023-06-14T06:21:41;2.53;;;1.38;;
48199;SDS011;33990;44.602;10.976;2023-06-14T06:24:08;2.33;;;1.40;;
48199;SDS011;33990;44.602;10.976;2023-06-14T06:26:35;4.15;;;2.03;;
48199;SDS011;33990;44.602;10.976;2023-06-14T06:29:03;2.88;;;1.83;;
48199;SDS011;33990;44.602;10.976;2023-06-14T06:31:31;3.78;;;1.40;;
48199;SDS011;33990;44.602;10.976;2023-06-14T06:33:58;2.42;;;1.05;;
48199;SDS011;33990;44.602;10.976;2023-06-14T06:36:25;2.97;;;1.45;;
48199;SDS011;33990;44.602;10.976;2023-06-14T06:38:53;1.90;;;1.10;;
48199;SDS011;33990;44.602;10.976;2023-06-14T06:41:20;2.83;;;1.10;;
48199;SDS011;33990;44.602;10.976;2023-06-14T06:43:47;2.55;;;1.00;;
48199;SDS011;33990;44.602;10.976;2023-06-14T06:46:16;3.00;;;1.20;;
48199;SDS011;33990;44.602;10.976;2023-06-14T06:48:46;3.45;;;1.75;;
48199;SDS011;33990;44.602;10.976;2023-06-14T06:51:13;3.97;;;1.95;;
48199;SDS011;33990;44.602;10.976;2023-06-14T06:53:41;4.35;;;2.72;;
48199;SDS011;33990;44.602;10.976;2023-06-14T06:56:15;4.90;;;2.70;;
48199;SDS011;33990;44.602;10.976;2023-06-14T06:58:42;5.15;;;3.05;;
48199;SDS011;33990;44.602;10.976;2023-06-14T07:01:10;4.53;;;2.88;;
48199;SDS011;33990;44.602;10.976;2023-06-14T07:03:38;5.03;;;3.17;;
48199;SDS011;33990;44.602;10.976;2023-06-14T07:06:06;5.05;;;2.70;;
48199;SDS011;33990;44.602;10.976;2023-06-14T07:08:33;4.97;;;3.05;;
48199;SDS011;33990;44.602;10.976;2023-06-14T07:11:01;5.03;;;2.40;;
48199;SDS011;33990;44.602;10.976;2023-06-14T07:13:29;5.55;;;3.28;;
48199;SDS011;33990;44.602;10.976;2023-06-14T07:15:59;4.25;;;2.50;;
48199;SDS011;33990;44.602;10.976;2023-06-14T07:18:28;4.63;;;2.72;;
48199;SDS011;33990;44.602;10.976;2023-06-14T07:20:56;4.90;;;2.47;;
48199;SDS011;33990;44.602;10.976;2023-06-14T07:23:24;4.25;;;2.65;;
48199;SDS011;33990;44.602;10.976;2023-06-14T07:25:52;5.50;;;2.97;;
48199;SDS011;33990;44.602;10.976;2023-06-14T07:28:19;5.53;;;2.90;;
48199;SDS011;33990;44.602;10.976;2023-06-14T07:30:47;6.28;;;3.58;;
48199;SDS011;33990;44.602;10.976;2023-06-14T07:33:15;7.30;;;4.25;;
48199;SDS011;33990;44.602;10.976;2023-06-14T07:35:42;7.68;;;4.50;;
48199;SDS011;33990;44.602;10.976;2023-06-14T07:38:10;6.80;;;4.55;;
48199;SDS011;33990;44.602;10.976;2023-06-14T07:40:37;5.97;;;4.45;;
48199;SDS011;33990;44.602;10.976;2023-06-14T07:43:05;7.82;;;4.30;;
48199;SDS011;33990;44.602;10.976;2023-06-14T07:45:32;5.82;;;4.45;;
48199;SDS011;33990;44.602;10.976;2023-06-14T07:47:59;5.47;;;4.13;;
48199;SDS011;33990;44.602;10.976;2023-06-14T07:50:27;5.30;;;3.80;;
48199;SDS011;33990;44.602;10.976;2023-06-14T07:52:56;6.22;;;4.00;;
48199;SDS011;33990;44.602;10.976;2023-06-14T07:55:23;5.55;;;3.63;;
48199;SDS011;33990;44.602;10.976;2023-06-14T07:57:52;7.93;;;5.32;;
48199;SDS011;33990;44.602;10.976;2023-06-14T08:00:19;5.75;;;4.40;;
48199;SDS011;33990;44.602;10.976;2023-06-14T08:02:47;5.50;;;4.18;;
48199;SDS011;33990;44.602;10.976;2023-06-14T08:05:14;5.78;;;3.95;;
48199;SDS011;33990;44.602;10.976;2023-06-14T08:07:43;6.60;;;3.97;;
48199;SDS011;33990;44.602;10.976;2023-06-14T08:10:10;5.95;;;4.18;;
48199;SDS011;33990;44.602;10.976;2023-06-14T08:12:37;6.03;;;4.50;;
48199;SDS011;33990;44.602;10.976;2023-06-14T08:15:05;5.43;;;4.55;;
48199;SDS011;33990;44.602;10.976;2023-06-14T08:17:42;5.40;;;4.30;;
48199;SDS011;33990;44.602;10.976;2023-06-14T08:20:12;5.13;;;4.10;;
48199;SDS011;33990;44.602;10.976;2023-06-14T08:22:40;5.43;;;3.83;;
48199;SDS011;33990;44.602;10.976;2023-06-14T08:25:09;5.18;;;3.05;;
48199;SDS011;33990;44.602;10.976;2023-06-14T08:27:39;5.22;;;3.15;;
48199;SDS011;33990;44.602;10.976;2023-06-14T08:30:07;5.65;;;3.65;;
48199;SDS011;33990;44.602;10.976;2023-06-14T08:32:35;5.30;;;3.75;;
48199;SDS011;33990;44.602;10.976;2023-06-14T08:35:02;5.65;;;4.35;;
48199;SDS011;33990;44.602;10.976;2023-06-14T08:37:32;6.00;;;4.85;;
48199;SDS011;33990;44.602;10.976;2023-06-14T08:40:02;5.93;;;4.53;;
48199;SDS011;33990;44.602;10.976;2023-06-14T08:42:33;6.65;;;5.95;;
48199;SDS011;33990;44.602;10.976;2023-06-14T08:45:02;8.55;;;6.05;;
48199;SDS011;33990;44.602;10.976;2023-06-14T08:47:30;6.65;;;4.85;;
48199;SDS011;33990;44.602;10.976;2023-06-14T08:50:08;5.95;;;4.95;;
48199;SDS011;33990;44.602;10.976;2023-06-14T08:52:55;7.53;;;5.13;;
48199;SDS011;33990;44.602;10.976;2023-06-14T08:57:57;6.35;;;5.68;;
48199;SDS011;33990;44.602;10.976;2023-06-14T09:00:25;6.50;;;5.20;;
48199;SDS011;33990;44.602;10.976;2023-06-14T09:02:54;6.78;;;5.30;;
48199;SDS011;33990;44.602;10.976;2023-06-14T09:05:25;6.65;;;4.95;;
48199;SDS011;33990;44.602;10.976;2023-06-14T09:07:54;5.85;;;4.40;;
48199;SDS011;33990;44.602;10.976;2023-06-14T09:10:22;5.90;;;4.65;;
48199;SDS011;33990;44.602;10.976;2023-06-14T09:12:51;6.28;;;5.05;;
48199;SDS011;33990;44.602;10.976;2023-06-14T09:15:18;7.80;;;5.25;;
48199;SDS011;33990;44.602;10.976;2023-06-14T09:17:46;8.27;;;5.43;;
48199;SDS011;33990;44.602;10.976;2023-06-14T09:20:13;6.05;;;5.18;;
48199;SDS011;33990;44.602;10.976;2023-06-14T09:22:45;5.47;;;4.53;;
48199;SDS011;33990;44.602;10.976;2023-06-14T09:25:13;5.90;;;4.10;;
48199;SDS011;33990;44.602;10.976;2023-06-14T09:27:59;6.85;;;4.28;;
48199;SDS011;33990;44.602;10.976;2023-06-14T09:30:26;4.35;;;3.40;;
48199;SDS011;33990;44.602;10.976;2023-06-14T09:32:55;4.22;;;3.45;;
48199;SDS011;33990;44.602;10.976;2023-06-14T09:35:26;5.57;;;4.75;;
48199;SDS011;33990;44.602;10.976;2023-06-14T09:37:56;5.65;;;4.90;;
48199;SDS011;33990;44.602;10.976;2023-06-14T09:40:24;7.03;;;4.90;;
48199;SDS011;33990;44.602;10.976;2023-06-14T09:42:54;5.72;;;4.40;;
48199;SDS011;33990;44.602;10.976;2023-06-14T09:45:27;5.68;;;4.95;;
48199;SDS011;33990;44.602;10.976;2023-06-14T09:47:57;5.82;;;4.90;;
48199;SDS011;33990;44.602;10.976;2023-06-14T09:50:28;4.97;;;4.30;;
48199;SDS011;33990;44.602;10.976;2023-06-14T09:52:56;6.32;;;5.03;;
48199;SDS011;33990;44.602;10.976;2023-06-14T09:55:30;6.05;;;5.45;;
48199;SDS011;33990;44.602;10.976;2023-06-14T09:58:03;6.50;;;5.37;;
48199;SDS011;33990;44.602;10.976;2023-06-14T10:00:33;4.68;;;4.07;;
48199;SDS011;33990;44.602;10.976;2023-06-14T10:03:11;4.97;;;4.25;;
48199;SDS011;33990;44.602;10.976;2023-06-14T10:05:39;6.35;;;3.65;;
48199;SDS011;33990;44.602;10.976;2023-06-14T10:08:11;7.30;;;4.35;;
48199;SDS011;33990;44.602;10.976;2023-06-14T10:10:42;4.72;;;3.80;;
48199;SDS011;33990;44.602;10.976;2023-06-14T10:13:11;3.90;;;3.20;;
48199;SDS011;33990;44.602;10.976;2023-06-14T10:15:48;4.80;;;3.92;;
48199;SDS011;33990;44.602;10.976;2023-06-14T10:24:20;4.93;;;4.28;;
48199;SDS011;33990;44.602;10.976;2023-06-14T10:26:57;6.00;;;4.32;;
48199;SDS011;33990;44.602;10.976;2023-06-14T10:29:27;5.38;;;4.28;;
48199;SDS011;33990;44.602;10.976;2023-06-14T10:32:00;5.93;;;3.17;;
48199;SDS011;33990;44.602;10.976;2023-06-14T10:34:31;4.30;;;3.45;;
48199;SDS011;33990;44.602;10.976;2023-06-14T10:42:13;5.30;;;3.92;;
48199;SDS011;33990;44.602;10.976;2023-06-14T10:44:42;4.25;;;3.60;;
48199;SDS011;33990;44.602;10.976;2023-06-14T10:47:10;4.75;;;3.83;;
48199;SDS011;33990;44.602;10.976;2023-06-14T10:49:49;7.18;;;4.28;;
48199;SDS011;33990;44.602;10.976;2023-06-14T10:52:23;5.18;;;4.53;;
48199;SDS011;33990;44.602;10.976;2023-06-14T10:57:23;4.70;;;4.20;;
48199;SDS011;33990;44.602;10.976;2023-06-14T10:59:50;5.45;;;4.70;;
48199;SDS011;33990;44.602;10.976;2023-06-14T11:04:52;5.45;;;4.13;;
48199;SDS011;33990;44.602;10.976;2023-06-14T11:07:35;5.28;;;3.88;;
48199;SDS011;33990;44.602;10.976;2023-06-14T11:13:08;4.55;;;3.70;;
48199;SDS011;33990;44.602;10.976;2023-06-14T11:15:36;4.60;;;3.67;;
48199;SDS011;33990;44.602;10.976;2023-06-14T11:18:05;3.70;;;3.30;;
48199;SDS011;33990;44.602;10.976;2023-06-14T11:20:34;4.13;;;3.72;;
48199;SDS011;33990;44.602;10.976;2023-06-14T11:23:03;5.05;;;4.28;;
48199;SDS011;33990;44.602;10.976;2023-06-14T11:25:32;4.68;;;4.13;;
48199;SDS011;33990;44.602;10.976;2023-06-14T11:27:59;4.93;;;4.00;;
48199;SDS011;33990;44.602;10.976;2023-06-14T11:30:27;5.43;;;4.15;;
48199;SDS011;33990;44.602;10.976;2023-06-14T11:32:57;4.47;;;3.70;;
48199;SDS011;33990;44.602;10.976;2023-06-14T11:35:25;3.63;;;3.28;;
48199;SDS011;33990;44.602;10.976;2023-06-14T11:37:53;4.85;;;3.88;;
48199;SDS011;33990;44.602;10.976;2023-06-14T11:40:25;3.75;;;3.33;;
48199;SDS011;33990;44.602;10.976;2023-06-14T11:42:59;5.47;;;3.80;;
48199;SDS011;33990;44.602;10.976;2023-06-14T11:45:29;3.53;;;3.13;;
48199;SDS011;33990;44.602;10.976;2023-06-14T11:48:00;5.97;;;3.47;;
48199;SDS011;33990;44.602;10.976;2023-06-14T11:50:28;5.13;;;3.35;;
48199;SDS011;33990;44.602;10.976;2023-06-14T11:52:58;4.07;;;3.40;;
48199;SDS011;33990;44.602;10.976;2023-06-14T11:55:37;3.97;;;3.38;;
48199;SDS011;33990;44.602;10.976;2023-06-14T11:58:06;4.18;;;3.03;;
48199;SDS011;33990;44.602;10.976;2023-06-14T12:00:35;4.55;;;3.20;;
48199;SDS011;33990;44.602;10.976;2023-06-14T12:03:03;5.72;;;3.45;;
48199;SDS011;33990;44.602;10.976;2023-06-14T12:05:32;4.18;;;2.85;;
48199;SDS011;33990;44.602;10.976;2023-06-14T12:08:02;3.60;;;3.03;;
48199;SDS011;33990;44.602;10.976;2023-06-14T12:10:30;3.58;;;3.13;;
48199;SDS011;33990;44.602;10.976;2023-06-14T12:13:07;3.47;;;2.78;;
48199;SDS011;33990;44.602;10.976;2023-06-14T12:15:34;3.95;;;3.20;;
48199;SDS011;33990;44.602;10.976;2023-06-14T12:18:04;3.50;;;2.70;;
48199;SDS011;33990;44.602;10.976;2023-06-14T12:20:34;3.83;;;2.63;;
48199;SDS011;33990;44.602;10.976;2023-06-14T12:23:03;4.43;;;2.78;;
48199;SDS011;33990;44.602;10.976;2023-06-14T12:25:32;3.22;;;2.70;;
48199;SDS011;33990;44.602;10.976;2023-06-14T12:28:08;4.03;;;3.45;;
48199;SDS011;33990;44.602;10.976;2023-06-14T12:30:37;3.42;;;2.95;;
48199;SDS011;33990;44.602;10.976;2023-06-14T12:33:05;3.75;;;3.22;;
48199;SDS011;33990;44.602;10.976;2023-06-14T12:35:33;3.67;;;2.70;;
48199;SDS011;33990;44.602;10.976;2023-06-14T12:38:00;3.42;;;2.55;;
48199;SDS011;33990;44.602;10.976;2023-06-14T12:40:28;3.15;;;2.45;;
48199;SDS011;33990;44.602;10.976;2023-06-14T12:42:55;4.07;;;2.88;;
48199;SDS011;33990;44.602;10.976;2023-06-14T12:45:22;3.88;;;3.20;;
48199;SDS011;33990;44.602;10.976;2023-06-14T12:47:50;3.88;;;2.88;;
48199;SDS011;33990;44.602;10.976;2023-06-14T12:50:18;3.78;;;2.78;;
48199;SDS011;33990;44.602;10.976;2023-06-14T12:52:48;4.57;;;3.00;;
48199;SDS011;33990;44.602;10.976;2023-06-14T12:55:16;5.65;;;2.97;;
48199;SDS011;33990;44.602;10.976;2023-06-14T12:57:43;5.38;;;3.58;;
48199;SDS011;33990;44.602;10.976;2023-06-14T13:00:11;4.35;;;3.88;;
48199;SDS011;33990;44.602;10.976;2023-06-14T13:02:40;5.80;;;4.07;;
48199;SDS011;33990;44.602;10.976;2023-06-14T13:05:08;7.68;;;4.32;;
48199;SDS011;33990;44.602;10.976;2023-06-14T13:07:35;5.22;;;3.88;;
48199;SDS011;33990;44.602;10.976;2023-06-14T13:10:03;4.85;;;3.90;;
48199;SDS011;33990;44.602;10.976;2023-06-14T13:12:30;4.30;;;3.90;;
48199;SDS011;33990;44.602;10.976;2023-06-14T13:14:58;4.93;;;4.10;;
48199;SDS011;33990;44.602;10.976;2023-06-14T13:17:25;3.88;;;3.38;;
48199;SDS011;33990;44.602;10.976;2023-06-14T13:19:53;4.82;;;4.13;;
48199;SDS011;33990;44.602;10.976;2023-06-14T13:22:21;4.43;;;3.75;;
48199;SDS011;33990;44.602;10.976;2023-06-14T13:24:48;4.25;;;3.67;;
48199;SDS011;33990;44.602;10.976;2023-06-14T13:27:16;5.35;;;3.83;;
48199;SDS011;33990;44.602;10.976;2023-06-14T13:29:43;5.10;;;3.78;;
48199;SDS011;33990;44.602;10.976;2023-06-14T13:32:11;5.85;;;3.72;;
48199;SDS011;33990;44.602;10.976;2023-06-14T13:34:38;6.20;;;3.65;;
48199;SDS011;33990;44.602;10.976;2023-06-14T13:37:06;4.97;;;3.88;;
48199;SDS011;33990;44.602;10.976;2023-06-14T13:39:33;5.78;;;4.15;;
48199;SDS011;33990;44.602;10.976;2023-06-14T13:42:00;6.13;;;4.00;;
48199;SDS011;33990;44.602;10.976;2023-06-14T13:44:28;5.38;;;3.97;;
48199;SDS011;33990;44.602;10.976;2023-06-14T13:46:55;4.28;;;3.45;;
48199;SDS011;33990;44.602;10.976;2023-06-14T13:49:23;6.93;;;3.50;;
48199;SDS011;33990;44.602;10.976;2023-06-14T13:51:50;5.15;;;3.85;;
48199;SDS011;33990;44.602;10.976;2023-06-14T13:54:21;7.07;;;3.95;;
48199;SDS011;33990;44.602;10.976;2023-06-14T13:56:48;5.80;;;4.00;;
48199;SDS011;33990;44.602;10.976;2023-06-14T13:59:16;6.82;;;4.15;;
48199;SDS011;33990;44.602;10.976;2023-06-14T14:01:43;4.00;;;3.25;;
48199;SDS011;33990;44.602;10.976;2023-06-14T14:04:10;6.15;;;4.38;;
48199;SDS011;33990;44.602;10.976;2023-06-14T14:06:38;5.30;;;3.47;;
48199;SDS011;33990;44.602;10.976;2023-06-14T14:09:06;4.25;;;3.40;;
48199;SDS011;33990;44.602;10.976;2023-06-14T14:11:35;4.07;;;3.67;;
48199;SDS011;33990;44.602;10.976;2023-06-14T14:14:03;5.13;;;4.07;;
48199;SDS011;33990;44.602;10.976;2023-06-14T14:16:35;7.40;;;4.28;;
48199;SDS011;33990;44.602;10.976;2023-06-14T14:19:03;5.85;;;4.50;;
48199;SDS011;33990;44.602;10.976;2023-06-14T14:21:31;7.45;;;4.28;;
48199;SDS011;33990;44.602;10.976;2023-06-14T14:23:58;6.65;;;4.25;;
48199;SDS011;33990;44.602;10.976;2023-06-14T14:26:26;7.18;;;4.10;;
48199;SDS011;33990;44.602;10.976;2023-06-14T14:28:53;4.30;;;3.47;;
48199;SDS011;33990;44.602;10.976;2023-06-14T14:31:20;4.03;;;3.63;;
48199;SDS011;33990;44.602;10.976;2023-06-14T14:33:48;4.93;;;3.75;;
48199;SDS011;33990;44.602;10.976;2023-06-14T14:36:15;4.50;;;3.50;;
48199;SDS011;33990;44.602;10.976;2023-06-14T14:38:42;6.30;;;4.10;;
48199;SDS011;33990;44.602;10.976;2023-06-14T14:41:10;6.00;;;4.00;;
48199;SDS011;33990;44.602;10.976;2023-06-14T14:43:37;4.32;;;3.60;;
48199;SDS011;33990;44.602;10.976;2023-06-14T14:46:04;5.80;;;4.40;;
48199;SDS011;33990;44.602;10.976;2023-06-14T14:48:32;5.78;;;4.18;;
48199;SDS011;33990;44.602;10.976;2023-06-14T14:50:59;6.22;;;3.72;;
48199;SDS011;33990;44.602;10.976;2023-06-14T14:53:27;4.80;;;3.83;;
48199;SDS011;33990;44.602;10.976;2023-06-14T14:55:54;4.65;;;3.67;;
48199;SDS011;33990;44.602;10.976;2023-06-14T14:58:21;7.03;;;4.53;;
48199;SDS011;33990;44.602;10.976;2023-06-14T15:00:49;6.68;;;4.15;;
48199;SDS011;33990;44.602;10.976;2023-06-14T15:03:16;4.32;;;3.67;;
48199;SDS011;33990;44.602;10.976;2023-06-14T15:05:44;5.72;;;3.20;;
48199;SDS011;33990;44.602;10.976;2023-06-14T15:08:11;4.05;;;3.10;;
48199;SDS011;33990;44.602;10.976;2023-06-14T15:10:39;4.60;;;3.60;;
48199;SDS011;33990;44.602;10.976;2023-06-14T15:13:10;4.03;;;3.25;;